sensor_id;sensor_type;location;lat;lon;timestamp;temperature;humidity
46590;DHT22;32313;48.722;9.362;2023-01-25T00:02:03;2.00;99.90
46590;DHT22;32313;48.722;9.362;2023-01-25T00:04:29;2.00;99.90
46590;DHT22;32313;48.722;9.362;2023-01-25T00:06:55;2.00;99.90
46590;DHT22;32313;48.722;9.362;2023-01-25T00:09:21;2.00;99.90
46590;DHT22;32313;48.722;9.362;2023-01-25T00:11:48;2.00;99.90
46590;DHT22;32313;48.722;9.362;2023-01-25T00:14:14;2.00;99.90
46590;DHT22;32313;48.722;9.362;2023-01-25T00:16:40;2.00;99.90
46590;DHT22;32313;48.722;9.362;2023-01-25T00:19:07;2.00;99.90
46590;DHT22;32313;48.722;9.362;2023-01-25T00:21:34;2.00;99.90
46590;DHT22;32313;48.722;9.362;2023-01-25T00:24:00;2.00;99.90
46590;DHT22;32313;48.722;9.362;2023-01-25T00:26:28;2.00;99.90
46590;DHT22;32313;48.722;9.362;2023-01-25T00:28:54;2.00;99.90
46590;DHT22;32313;48.722;9.362;2023-01-25T00:31:53;2.00;99.90
46590;DHT22;32313;48.722;9.362;2023-01-25T00:36:56;2.00;99.90
46590;DHT22;32313;48.722;9.362;2023-01-25T00:39:24;2.00;99.90
46590;DHT22;32313;48.722;9.362;2023-01-25T00:41:50;2.00;99.90
46590;DHT22;32313;48.722;9.362;2023-01-25T00:44:17;2.00;99.90
46590;DHT22;32313;48.722;9.362;2023-01-25T00:46:42;1.90;99.90
46590;DHT22;32313;48.722;9.362;2023-01-25T00:49:22;2.00;99.90
46590;DHT22;32313;48.722;9.362;2023-01-25T00:51:49;2.00;99.90
46590;DHT22;32313;48.722;9.362;2023-01-25T00:54:15;2.00;99.90
46590;DHT22;32313;48.722;9.362;2023-01-25T00:56:41;2.00;99.90
46590;DHT22;32313;48.722;9.362;2023-01-25T00:59:08;2.00;99.90
46590;DHT22;32313;48.722;9.362;2023-01-25T01:01:34;2.00;99.90
46590;DHT22;32313;48.722;9.362;2023-01-25T01:03:59;2.00;99.90
46590;DHT22;32313;48.722;9.362;2023-01-25T01:06:25;2.00;99.90
46590;DHT22;32313;48.722;9.362;2023-01-25T01:08:51;2.00;99.90
46590;DHT22;32313;48.722;9.362;2023-01-25T01:11:17;2.00;99.90
46590;DHT22;32313;48.722;9.362;2023-01-25T01:13:43;2.00;99.90
46590;DHT22;32313;48.722;9.362;2023-01-25T01:16:10;2.00;99.90
46590;DHT22;32313;48.722;9.362;2023-01-25T01:18:39;2.00;99.90
46590;DHT22;32313;48.722;9.362;2023-01-25T01:21:05;2.00;99.90
46590;DHT22;32313;48.722;9.362;2023-01-25T01:23:32;2.00;99.90
46590;DHT22;32313;48.722;9.362;2023-01-25T01:25:59;2.00;99.90
46590;DHT22;32313;48.722;9.362;2023-01-25T01:32:12;2.00;99.90
46590;DHT22;32313;48.722;9.362;2023-01-25T01:34:38;2.00;99.90
46590;DHT22;32313;48.722;9.362;2023-01-25T01:37:04;2.00;99.90
46590;DHT22;32313;48.722;9.362;2023-01-25T01:39:29;2.00;99.90
46590;DHT22;32313;48.722;9.362;2023-01-25T01:41:55;2.00;99.90
46590;DHT22;32313;48.722;9.362;2023-01-25T01:44:45;2.00;99.90
46590;DHT22;32313;48.722;9.362;2023-01-25T01:47:26;2.00;99.90
46590;DHT22;32313;48.722;9.362;2023-01-25T01:50:04;2.00;99.90
46590;DHT22;32313;48.722;9.362;2023-01-25T01:52:36;1.90;99.90
46590;DHT22;32313;48.722;9.362;2023-01-25T01:55:10;2.00;99.90
46590;DHT22;32313;48.722;9.362;2023-01-25T01:57:46;2.00;99.90
46590;DHT22;32313;48.722;9.362;2023-01-25T02:00:19;2.00;99.90
46590;DHT22;32313;48.722;9.362;2023-01-25T02:02:48;2.00;99.90
46590;DHT22;32313;48.722;9.362;2023-01-25T02:05:26;2.00;99.90
46590;DHT22;32313;48.722;9.362;2023-01-25T02:07:54;2.00;99.90
46590;DHT22;32313;48.722;9.362;2023-01-25T02:10:21;2.00;99.90
46590;DHT22;32313;48.722;9.362;2023-01-25T02:12:50;2.00;99.90
46590;DHT22;32313;48.722;9.362;2023-01-25T02:15:17;2.00;99.90
46590;DHT22;32313;48.722;9.362;2023-01-25T02:17:42;2.00;99.90
46590;DHT22;32313;48.722;9.362;2023-01-25T02:20:28;2.00;99.90
46590;DHT22;32313;48.722;9.362;2023-01-25T02:25:26;2.00;99.90
46590;DHT22;32313;48.722;9.362;2023-01-25T02:28:04;2.00;99.90
46590;DHT22;32313;48.722;9.362;2023-01-25T02:30:32;2.00;99.90
46590;DHT22;32313;48.722;9.362;2023-01-25T02:32:58;2.00;99.90
46590;DHT22;32313;48.722;9.362;2023-01-25T02:38:01;1.90;99.90
46590;DHT22;32313;48.722;9.362;2023-01-25T02:40:30;2.00;99.90
46590;DHT22;32313;48.722;9.362;2023-01-25T02:42:57;2.00;99.90
46590;DHT22;32313;48.722;9.362;2023-01-25T02:45:25;1.90;99.90
46590;DHT22;32313;48.722;9.362;2023-01-25T02:47:51;1.90;99.90
46590;DHT22;32313;48.722;9.362;2023-01-25T02:50:17;1.90;99.90
46590;DHT22;32313;48.722;9.362;2023-01-25T02:52:43;1.90;99.90
46590;DHT22;32313;48.722;9.362;2023-01-25T02:55:09;1.90;99.90
46590;DHT22;32313;48.722;9.362;2023-01-25T02:57:35;1.90;99.90
46590;DHT22;32313;48.722;9.362;2023-01-25T03:00:01;1.90;99.90
46590;DHT22;32313;48.722;9.362;2023-01-25T03:02:27;1.90;99.90
46590;DHT22;32313;48.722;9.362;2023-01-25T03:04:53;1.90;99.90
46590;DHT22;32313;48.722;9.362;2023-01-25T03:07:19;1.90;99.90
46590;DHT22;32313;48.722;9.362;2023-01-25T03:09:45;1.90;99.90
46590;DHT22;32313;48.722;9.362;2023-01-25T03:12:10;1.90;99.90
46590;DHT22;32313;48.722;9.362;2023-01-25T03:14:38;1.90;99.90
46590;DHT22;32313;48.722;9.362;2023-01-25T03:17:04;1.90;99.90
46590;DHT22;32313;48.722;9.362;2023-01-25T03:19:30;1.90;99.90
46590;DHT22;32313;48.722;9.362;2023-01-25T03:21:56;1.90;99.90
46590;DHT22;32313;48.722;9.362;2023-01-25T03:24:24;1.90;99.90
46590;DHT22;32313;48.722;9.362;2023-01-25T03:26:50;1.90;99.90
46590;DHT22;32313;48.722;9.362;2023-01-25T03:29:52;1.90;99.90
46590;DHT22;32313;48.722;9.362;2023-01-25T03:32:26;1.90;99.90
46590;DHT22;32313;48.722;9.362;2023-01-25T03:34:52;1.90;99.90
46590;DHT22;32313;48.722;9.362;2023-01-25T03:37:19;1.90;99.90
46590;DHT22;32313;48.722;9.362;2023-01-25T03:39:46;1.90;99.90
46590;DHT22;32313;48.722;9.362;2023-01-25T03:42:12;1.90;99.90
46590;DHT22;32313;48.722;9.362;2023-01-25T03:44:38;1.90;99.90
46590;DHT22;32313;48.722;9.362;2023-01-25T03:47:04;1.80;99.90
46590;DHT22;32313;48.722;9.362;2023-01-25T03:49:29;1.80;99.90
46590;DHT22;32313;48.722;9.362;2023-01-25T03:51:55;1.80;99.90
46590;DHT22;32313;48.722;9.362;2023-01-25T03:54:28;1.80;99.90
46590;DHT22;32313;48.722;9.362;2023-01-25T03:56:54;1.90;99.90
46590;DHT22;32313;48.722;9.362;2023-01-25T03:59:23;1.80;99.90
46590;DHT22;32313;48.722;9.362;2023-01-25T04:01:49;1.80;99.90
46590;DHT22;32313;48.722;9.362;2023-01-25T04:04:17;1.80;99.90
46590;DHT22;32313;48.722;9.362;2023-01-25T04:06:44;1.80;99.90
46590;DHT22;32313;48.722;9.362;2023-01-25T04:09:10;1.80;99.90
46590;DHT22;32313;48.722;9.362;2023-01-25T04:11:42;1.80;99.90
46590;DHT22;32313;48.722;9.362;2023-01-25T04:14:10;1.80;99.90
46590;DHT22;32313;48.722;9.362;2023-01-25T04:16:43;1.80;99.90
46590;DHT22;32313;48.722;9.362;2023-01-25T04:19:41;1.80;99.90
46590;DHT22;32313;48.722;9.362;2023-01-25T04:22:10;1.80;99.90
46590;DHT22;32313;48.722;9.362;2023-01-25T04:24:37;1.80;99.90
46590;DHT22;32313;48.722;9.362;2023-01-25T04:27:04;1.80;99.90
46590;DHT22;32313;48.722;9.362;2023-01-25T04:29:34;1.80;99.90
46590;DHT22;32313;48.722;9.362;2023-01-25T04:32:00;1.80;99.90
46590;DHT22;32313;48.722;9.362;2023-01-25T04:34:26;1.80;99.90
46590;DHT22;32313;48.722;9.362;2023-01-25T04:36:52;1.80;99.90
46590;DHT22;32313;48.722;9.362;2023-01-25T04:39:18;1.80;99.90
46590;DHT22;32313;48.722;9.362;2023-01-25T04:41:45;1.80;99.90
46590;DHT22;32313;48.722;9.362;2023-01-25T04:44:11;1.80;99.90
46590;DHT22;32313;48.722;9.362;2023-01-25T04:46:39;1.80;99.90
46590;DHT22;32313;48.722;9.362;2023-01-25T04:49:05;1.80;99.90
46590;DHT22;32313;48.722;9.362;2023-01-25T04:51:32;1.80;99.90
46590;DHT22;32313;48.722;9.362;2023-01-25T04:53:57;1.80;99.90
46590;DHT22;32313;48.722;9.362;2023-01-25T04:56:23;1.80;99.90
46590;DHT22;32313;48.722;9.362;2023-01-25T04:58:52;1.80;99.90
46590;DHT22;32313;48.722;9.362;2023-01-25T05:01:18;1.80;99.90
46590;DHT22;32313;48.722;9.362;2023-01-25T05:03:44;1.80;99.90
46590;DHT22;32313;48.722;9.362;2023-01-25T05:06:22;1.80;99.90
46590;DHT22;32313;48.722;9.362;2023-01-25T05:08:48;1.80;99.90
46590;DHT22;32313;48.722;9.362;2023-01-25T05:11:14;1.80;99.90
46590;DHT22;32313;48.722;9.362;2023-01-25T05:13:50;1.80;99.90
46590;DHT22;32313;48.722;9.362;2023-01-25T05:16:22;1.80;99.90
46590;DHT22;32313;48.722;9.362;2023-01-25T05:18:48;1.80;99.90
46590;DHT22;32313;48.722;9.362;2023-01-25T05:21:17;1.80;99.90
46590;DHT22;32313;48.722;9.362;2023-01-25T05:24:02;1.80;99.90
46590;DHT22;32313;48.722;9.362;2023-01-25T05:26:30;1.80;99.90
46590;DHT22;32313;48.722;9.362;2023-01-25T05:29:14;1.80;99.90
46590;DHT22;32313;48.722;9.362;2023-01-25T05:31:49;1.80;99.90
46590;DHT22;32313;48.722;9.362;2023-01-25T05:34:15;1.70;99.90
46590;DHT22;32313;48.722;9.362;2023-01-25T05:36:41;1.70;99.90
46590;DHT22;32313;48.722;9.362;2023-01-25T05:39:07;1.70;99.90
46590;DHT22;32313;48.722;9.362;2023-01-25T05:41:34;1.70;99.90
46590;DHT22;32313;48.722;9.362;2023-01-25T05:44:00;1.70;99.90
46590;DHT22;32313;48.722;9.362;2023-01-25T05:46:27;1.70;99.90
46590;DHT22;32313;48.722;9.362;2023-01-25T05:48:53;1.70;99.90
46590;DHT22;32313;48.722;9.362;2023-01-25T05:51:20;1.70;99.90
46590;DHT22;32313;48.722;9.362;2023-01-25T05:53:46;1.70;99.90
46590;DHT22;32313;48.722;9.362;2023-01-25T05:56:12;1.70;99.90
46590;DHT22;32313;48.722;9.362;2023-01-25T05:58:39;1.70;99.90
46590;DHT22;32313;48.722;9.362;2023-01-25T06:01:06;1.70;99.90
46590;DHT22;32313;48.722;9.362;2023-01-25T06:03:42;1.70;99.90
46590;DHT22;32313;48.722;9.362;2023-01-25T06:06:07;1.70;99.90
46590;DHT22;32313;48.722;9.362;2023-01-25T06:08:34;1.70;99.90
46590;DHT22;32313;48.722;9.362;2023-01-25T06:11:08;1.70;99.90
46590;DHT22;32313;48.722;9.362;2023-01-25T06:13:35;1.70;99.90
46590;DHT22;32313;48.722;9.362;2023-01-25T06:16:00;1.70;99.90
46590;DHT22;32313;48.722;9.362;2023-01-25T06:18:55;1.70;99.90
46590;DHT22;32313;48.722;9.362;2023-01-25T06:21:21;1.70;99.90
46590;DHT22;32313;48.722;9.362;2023-01-25T06:23:46;1.70;99.90
46590;DHT22;32313;48.722;9.362;2023-01-25T06:26:14;1.70;99.90
46590;DHT22;32313;48.722;9.362;2023-01-25T06:28:40;1.70;99.90
46590;DHT22;32313;48.722;9.362;2023-01-25T06:31:11;1.70;99.90
46590;DHT22;32313;48.722;9.362;2023-01-25T06:33:38;1.70;99.90
46590;DHT22;32313;48.722;9.362;2023-01-25T06:36:06;1.70;99.90
46590;DHT22;32313;48.722;9.362;2023-01-25T06:38:32;1.70;99.90
46590;DHT22;32313;48.722;9.362;2023-01-25T06:40:59;1.70;99.90
46590;DHT22;32313;48.722;9.362;2023-01-25T06:43:26;1.70;99.90
46590;DHT22;32313;48.722;9.362;2023-01-25T06:45:51;1.70;99.90
46590;DHT22;32313;48.722;9.362;2023-01-25T06:48:17;1.70;99.90
46590;DHT22;32313;48.722;9.362;2023-01-25T06:50:43;1.70;99.90
46590;DHT22;32313;48.722;9.362;2023-01-25T06:53:09;1.70;99.90
46590;DHT22;32313;48.722;9.362;2023-01-25T06:55:34;1.70;99.90
46590;DHT22;32313;48.722;9.362;2023-01-25T06:58:00;1.60;99.90
46590;DHT22;32313;48.722;9.362;2023-01-25T07:00:26;1.60;99.90
46590;DHT22;32313;48.722;9.362;2023-01-25T07:02:51;1.60;99.90
46590;DHT22;32313;48.722;9.362;2023-01-25T07:05:17;1.60;99.90
46590;DHT22;32313;48.722;9.362;2023-01-25T07:07:46;1.70;99.90
46590;DHT22;32313;48.722;9.362;2023-01-25T07:10:11;1.60;99.90
46590;DHT22;32313;48.722;9.362;2023-01-25T07:12:37;1.60;99.90
46590;DHT22;32313;48.722;9.362;2023-01-25T07:15:03;1.60;99.90
46590;DHT22;32313;48.722;9.362;2023-01-25T07:17:29;1.70;99.90
46590;DHT22;32313;48.722;9.362;2023-01-25T07:19:55;1.70;99.90
46590;DHT22;32313;48.722;9.362;2023-01-25T07:22:20;1.70;99.90
46590;DHT22;32313;48.722;9.362;2023-01-25T07:24:46;1.70;99.90
46590;DHT22;32313;48.722;9.362;2023-01-25T07:27:15;1.70;99.90
46590;DHT22;32313;48.722;9.362;2023-01-25T07:29:42;1.70;99.90
46590;DHT22;32313;48.722;9.362;2023-01-25T07:32:07;1.70;99.90
46590;DHT22;32313;48.722;9.362;2023-01-25T07:34:34;1.70;99.90
46590;DHT22;32313;48.722;9.362;2023-01-25T07:36:59;1.70;99.90
46590;DHT22;32313;48.722;9.362;2023-01-25T07:39:25;1.70;99.90
46590;DHT22;32313;48.722;9.362;2023-01-25T07:41:50;1.70;99.90
46590;DHT22;32313;48.722;9.362;2023-01-25T07:44:18;1.70;99.90
46590;DHT22;32313;48.722;9.362;2023-01-25T07:46:47;1.70;99.90
46590;DHT22;32313;48.722;9.362;2023-01-25T07:49:13;1.70;99.90
46590;DHT22;32313;48.722;9.362;2023-01-25T07:51:39;1.80;99.90
46590;DHT22;32313;48.722;9.362;2023-01-25T07:54:04;1.80;99.90
46590;DHT22;32313;48.722;9.362;2023-01-25T07:56:35;1.80;99.90
46590;DHT22;32313;48.722;9.362;2023-01-25T07:59:03;1.80;99.90
46590;DHT22;32313;48.722;9.362;2023-01-25T08:01:30;1.80;99.90
46590;DHT22;32313;48.722;9.362;2023-01-25T08:03:59;1.80;99.90
46590;DHT22;32313;48.722;9.362;2023-01-25T08:06:27;1.80;99.90
46590;DHT22;32313;48.722;9.362;2023-01-25T08:08:57;1.80;99.90
46590;DHT22;32313;48.722;9.362;2023-01-25T08:11:26;1.80;99.90
46590;DHT22;32313;48.722;9.362;2023-01-25T08:13:51;1.80;99.90
46590;DHT22;32313;48.722;9.362;2023-01-25T08:16:19;1.80;99.90
46590;DHT22;32313;48.722;9.362;2023-01-25T08:18:50;1.90;99.90
46590;DHT22;32313;48.722;9.362;2023-01-25T08:21:16;1.90;99.90
46590;DHT22;32313;48.722;9.362;2023-01-25T08:23:42;1.90;99.90
46590;DHT22;32313;48.722;9.362;2023-01-25T08:26:10;1.90;99.90
46590;DHT22;32313;48.722;9.362;2023-01-25T08:28:36;1.90;99.90
46590;DHT22;32313;48.722;9.362;2023-01-25T08:31:10;1.90;99.90
46590;DHT22;32313;48.722;9.362;2023-01-25T08:33:37;1.90;99.90
46590;DHT22;32313;48.722;9.362;2023-01-25T08:36:03;1.90;99.90
46590;DHT22;32313;48.722;9.362;2023-01-25T08:38:29;1.90;99.90
46590;DHT22;32313;48.722;9.362;2023-01-25T08:40:55;1.90;99.90
46590;DHT22;32313;48.722;9.362;2023-01-25T08:43:28;1.90;99.90
46590;DHT22;32313;48.722;9.362;2023-01-25T08:45:57;1.90;99.90
46590;DHT22;32313;48.722;9.362;2023-01-25T08:48:22;1.90;99.90
46590;DHT22;32313;48.722;9.362;2023-01-25T08:50:48;1.90;99.90
46590;DHT22;32313;48.722;9.362;2023-01-25T08:53:14;1.90;99.90
46590;DHT22;32313;48.722;9.362;2023-01-25T08:55:40;1.90;99.90
46590;DHT22;32313;48.722;9.362;2023-01-25T08:58:14;1.90;99.90
46590;DHT22;32313;48.722;9.362;2023-01-25T09:00:42;1.90;99.90
46590;DHT22;32313;48.722;9.362;2023-01-25T09:03:08;2.00;99.90
46590;DHT22;32313;48.722;9.362;2023-01-25T09:05:36;2.00;99.90
46590;DHT22;32313;48.722;9.362;2023-01-25T09:08:03;2.00;99.90
46590;DHT22;32313;48.722;9.362;2023-01-25T09:10:30;2.00;99.90
46590;DHT22;32313;48.722;9.362;2023-01-25T09:12:56;2.00;99.90
46590;DHT22;32313;48.722;9.362;2023-01-25T09:15:21;2.00;99.90
46590;DHT22;32313;48.722;9.362;2023-01-25T09:17:55;2.00;99.90
46590;DHT22;32313;48.722;9.362;2023-01-25T09:20:21;2.00;99.90
46590;DHT22;32313;48.722;9.362;2023-01-25T09:22:46;2.10;99.90
46590;DHT22;32313;48.722;9.362;2023-01-25T09:25:13;2.00;99.90
46590;DHT22;32313;48.722;9.362;2023-01-25T09:27:39;2.00;99.90
46590;DHT22;32313;48.722;9.362;2023-01-25T09:30:06;2.00;99.90
46590;DHT22;32313;48.722;9.362;2023-01-25T09:32:33;2.00;99.90
46590;DHT22;32313;48.722;9.362;2023-01-25T09:34:59;2.00;99.90
46590;DHT22;32313;48.722;9.362;2023-01-25T09:37:25;2.10;99.90
46590;DHT22;32313;48.722;9.362;2023-01-25T09:39:50;2.10;99.90
46590;DHT22;32313;48.722;9.362;2023-01-25T09:42:47;2.10;99.90
46590;DHT22;32313;48.722;9.362;2023-01-25T09:45:29;2.10;99.90
46590;DHT22;32313;48.722;9.362;2023-01-25T09:50:31;2.20;99.90
46590;DHT22;32313;48.722;9.362;2023-01-25T09:53:09;2.20;99.90
46590;DHT22;32313;48.722;9.362;2023-01-25T09:55:38;2.20;99.90
46590;DHT22;32313;48.722;9.362;2023-01-25T09:58:12;2.20;99.90
46590;DHT22;32313;48.722;9.362;2023-01-25T10:00:43;2.20;99.90
46590;DHT22;32313;48.722;9.362;2023-01-25T10:05:49;2.20;99.90
46590;DHT22;32313;48.722;9.362;2023-01-25T10:10:42;2.30;99.90
46590;DHT22;32313;48.722;9.362;2023-01-25T10:13:16;2.30;99.90
46590;DHT22;32313;48.722;9.362;2023-01-25T10:15:48;2.20;99.90
46590;DHT22;32313;48.722;9.362;2023-01-25T10:18:37;2.30;99.90
46590;DHT22;32313;48.722;9.362;2023-01-25T10:21:13;2.20;99.90
46590;DHT22;32313;48.722;9.362;2023-01-25T10:26:24;2.20;99.90
46590;DHT22;32313;48.722;9.362;2023-01-25T10:31:51;2.20;99.90
46590;DHT22;32313;48.722;9.362;2023-01-25T10:34:32;2.20;99.90
46590;DHT22;32313;48.722;9.362;2023-01-25T10:37:15;2.20;99.90
46590;DHT22;32313;48.722;9.362;2023-01-25T10:40:00;2.20;99.90
46590;DHT22;32313;48.722;9.362;2023-01-25T10:42:30;2.30;99.90
46590;DHT22;32313;48.722;9.362;2023-01-25T10:44:57;2.30;99.90
46590;DHT22;32313;48.722;9.362;2023-01-25T10:47:25;2.40;99.90
46590;DHT22;32313;48.722;9.362;2023-01-25T10:49:54;2.40;99.90
46590;DHT22;32313;48.722;9.362;2023-01-25T10:52:31;2.40;99.90
46590;DHT22;32313;48.722;9.362;2023-01-25T10:57:49;2.40;99.90
46590;DHT22;32313;48.722;9.362;2023-01-25T11:00:31;2.40;99.90
46590;DHT22;32313;48.722;9.362;2023-01-25T11:02:59;2.40;99.90
46590;DHT22;32313;48.722;9.362;2023-01-25T11:07:58;2.40;99.90
46590;DHT22;32313;48.722;9.362;2023-01-25T11:10:45;2.50;99.90
46590;DHT22;32313;48.722;9.362;2023-01-25T11:15:48;2.50;99.90
46590;DHT22;32313;48.722;9.362;2023-01-25T11:18:26;2.50;99.90
46590;DHT22;32313;48.722;9.362;2023-01-25T11:21:13;2.50;99.90
46590;DHT22;32313;48.722;9.362;2023-01-25T11:23:41;2.50;99.90
46590;DHT22;32313;48.722;9.362;2023-01-25T11:26:25;2.40;99.90
46590;DHT22;32313;48.722;9.362;2023-01-25T11:29:14;2.40;99.90
46590;DHT22;32313;48.722;9.362;2023-01-25T11:31:43;2.40;99.90
46590;DHT22;32313;48.722;9.362;2023-01-25T11:34:24;2.40;99.90
46590;DHT22;32313;48.722;9.362;2023-01-25T11:37:27;2.40;99.90
46590;DHT22;32313;48.722;9.362;2023-01-25T11:40:23;2.50;99.90
46590;DHT22;32313;48.722;9.362;2023-01-25T11:45:50;2.50;99.90
46590;DHT22;32313;48.722;9.362;2023-01-25T11:54:00;2.50;99.90
46590;DHT22;32313;48.722;9.362;2023-01-25T11:59:20;2.50;99.90
46590;DHT22;32313;48.722;9.362;2023-01-25T12:10:54;2.40;99.90
46590;DHT22;32313;48.722;9.362;2023-01-25T12:19:02;2.40;99.90
46590;DHT22;32313;48.722;9.362;2023-01-25T12:29:31;2.40;99.90
46590;DHT22;32313;48.722;9.362;2023-01-25T12:35:22;2.40;99.90
46590;DHT22;32313;48.722;9.362;2023-01-25T12:37:52;2.40;99.90
46590;DHT22;32313;48.722;9.362;2023-01-25T12:43:08;2.40;99.90
46590;DHT22;32313;48.722;9.362;2023-01-25T12:45:38;2.40;99.90
46590;DHT22;32313;48.722;9.362;2023-01-25T12:48:20;2.40;99.90
46590;DHT22;32313;48.722;9.362;2023-01-25T12:50:57;2.30;99.90
46590;DHT22;32313;48.722;9.362;2023-01-25T12:53:26;2.30;99.90
46590;DHT22;32313;48.722;9.362;2023-01-25T12:55:54;2.30;99.90
46590;DHT22;32313;48.722;9.362;2023-01-25T12:58:45;2.30;99.90
46590;DHT22;32313;48.722;9.362;2023-01-25T13:01:32;2.30;99.90
46590;DHT22;32313;48.722;9.362;2023-01-25T13:07:06;2.30;99.90
46590;DHT22;32313;48.722;9.362;2023-01-25T13:10:01;2.20;99.90
46590;DHT22;32313;48.722;9.362;2023-01-25T13:12:28;2.20;99.90
46590;DHT22;32313;48.722;9.362;2023-01-25T13:14:54;2.20;99.90
46590;DHT22;32313;48.722;9.362;2023-01-25T13:17:30;2.20;99.90
46590;DHT22;32313;48.722;9.362;2023-01-25T13:19:57;2.20;99.90
46590;DHT22;32313;48.722;9.362;2023-01-25T13:25:29;2.20;99.90
46590;DHT22;32313;48.722;9.362;2023-01-25T13:34:02;2.10;99.90
46590;DHT22;32313;48.722;9.362;2023-01-25T13:36:43;2.10;99.90
46590;DHT22;32313;48.722;9.362;2023-01-25T13:42:25;2.10;99.90
46590;DHT22;32313;48.722;9.362;2023-01-25T13:44:58;2.10;99.90
46590;DHT22;32313;48.722;9.362;2023-01-25T13:47:27;2.10;99.90
46590;DHT22;32313;48.722;9.362;2023-01-25T13:49:59;2.10;99.90
46590;DHT22;32313;48.722;9.362;2023-01-25T13:52:27;2.20;99.90
46590;DHT22;32313;48.722;9.362;2023-01-25T13:54:56;2.20;99.90
46590;DHT22;32313;48.722;9.362;2023-01-25T13:57:24;2.20;99.90
46590;DHT22;32313;48.722;9.362;2023-01-25T14:00:00;2.20;99.90
46590;DHT22;32313;48.722;9.362;2023-01-25T14:02:26;2.10;99.90
46590;DHT22;32313;48.722;9.362;2023-01-25T14:04:52;2.10;99.90
46590;DHT22;32313;48.722;9.362;2023-01-25T14:07:20;2.10;99.90
46590;DHT22;32313;48.722;9.362;2023-01-25T14:09:47;2.10;99.90
46590;DHT22;32313;48.722;9.362;2023-01-25T14:15:14;2.10;99.90
46590;DHT22;32313;48.722;9.362;2023-01-25T14:17:40;2.10;99.90
46590;DHT22;32313;48.722;9.362;2023-01-25T14:20:20;2.00;99.90
46590;DHT22;32313;48.722;9.362;2023-01-25T14:22:47;2.00;99.90
46590;DHT22;32313;48.722;9.362;2023-01-25T14:25:18;2.00;99.90
46590;DHT22;32313;48.722;9.362;2023-01-25T14:27:49;2.00;99.90
46590;DHT22;32313;48.722;9.362;2023-01-25T14:30:27;1.90;99.90
46590;DHT22;32313;48.722;9.362;2023-01-25T14:33:28;1.90;99.90
46590;DHT22;32313;48.722;9.362;2023-01-25T14:35:48;1.90;99.90
46590;DHT22;32313;48.722;9.362;2023-01-25T14:38:34;1.90;99.90
46590;DHT22;32313;48.722;9.362;2023-01-25T14:41:13;1.80;99.90
46590;DHT22;32313;48.722;9.362;2023-01-25T14:43:42;1.80;99.90
46590;DHT22;32313;48.722;9.362;2023-01-25T14:48:51;1.80;99.90
46590;DHT22;32313;48.722;9.362;2023-01-25T14:51:30;1.80;99.90
46590;DHT22;32313;48.722;9.362;2023-01-25T14:54:04;1.80;99.90
46590;DHT22;32313;48.722;9.362;2023-01-25T14:56:39;1.80;99.90
46590;DHT22;32313;48.722;9.362;2023-01-25T14:59:14;1.80;99.90
46590;DHT22;32313;48.722;9.362;2023-01-25T15:01:48;1.80;99.90
46590;DHT22;32313;48.722;9.362;2023-01-25T15:04:14;1.80;99.90
46590;DHT22;32313;48.722;9.362;2023-01-25T15:06:48;1.80;99.90
46590;DHT22;32313;48.722;9.362;2023-01-25T15:09:39;1.80;99.90
46590;DHT22;32313;48.722;9.362;2023-01-25T15:12:26;1.80;99.90
46590;DHT22;32313;48.722;9.362;2023-01-25T15:14:54;1.70;99.90
46590;DHT22;32313;48.722;9.362;2023-01-25T15:17:44;1.70;99.90
46590;DHT22;32313;48.722;9.362;2023-01-25T15:20:39;1.70;99.90
46590;DHT22;32313;48.722;9.362;2023-01-25T15:23:24;1.70;99.90
46590;DHT22;32313;48.722;9.362;2023-01-25T15:25:57;1.70;99.90
46590;DHT22;32313;48.722;9.362;2023-01-25T15:28:27;1.70;99.90
46590;DHT22;32313;48.722;9.362;2023-01-25T15:30:54;1.70;99.90
46590;DHT22;32313;48.722;9.362;2023-01-25T15:33:26;1.60;99.90
46590;DHT22;32313;48.722;9.362;2023-01-25T15:35:53;1.60;99.90
46590;DHT22;32313;48.722;9.362;2023-01-25T15:38:19;1.60;99.90
46590;DHT22;32313;48.722;9.362;2023-01-25T15:40:46;1.60;99.90
46590;DHT22;32313;48.722;9.362;2023-01-25T15:43:13;1.60;99.90
46590;DHT22;32313;48.722;9.362;2023-01-25T15:45:41;1.60;99.90
46590;DHT22;32313;48.722;9.362;2023-01-25T15:48:16;1.60;99.90
46590;DHT22;32313;48.722;9.362;2023-01-25T15:50:43;1.60;99.90
46590;DHT22;32313;48.722;9.362;2023-01-25T15:53:14;1.50;99.90
46590;DHT22;32313;48.722;9.362;2023-01-25T15:55:41;1.50;99.90
46590;DHT22;32313;48.722;9.362;2023-01-25T15:58:11;1.50;99.90
46590;DHT22;32313;48.722;9.362;2023-01-25T16:00:38;1.50;99.90
46590;DHT22;32313;48.722;9.362;2023-01-25T16:03:04;1.50;99.90
46590;DHT22;32313;48.722;9.362;2023-01-25T16:05:30;1.50;99.90
46590;DHT22;32313;48.722;9.362;2023-01-25T16:07:56;1.50;99.90
46590;DHT22;32313;48.722;9.362;2023-01-25T16:10:23;1.50;99.90
46590;DHT22;32313;48.722;9.362;2023-01-25T16:12:49;1.50;99.90
46590;DHT22;32313;48.722;9.362;2023-01-25T16:15:15;1.50;99.90
46590;DHT22;32313;48.722;9.362;2023-01-25T16:17:41;1.50;99.90
46590;DHT22;32313;48.722;9.362;2023-01-25T16:20:15;1.50;99.90
46590;DHT22;32313;48.722;9.362;2023-01-25T16:22:41;1.50;99.90
46590;DHT22;32313;48.722;9.362;2023-01-25T16:25:07;1.50;99.90
46590;DHT22;32313;48.722;9.362;2023-01-25T16:27:33;1.50;99.90
46590;DHT22;32313;48.722;9.362;2023-01-25T16:30:04;1.50;99.90
46590;DHT22;32313;48.722;9.362;2023-01-25T16:32:30;1.50;99.90
46590;DHT22;32313;48.722;9.362;2023-01-25T16:34:56;1.50;99.90
46590;DHT22;32313;48.722;9.362;2023-01-25T16:37:22;1.50;99.90
46590;DHT22;32313;48.722;9.362;2023-01-25T16:39:47;1.50;99.90
46590;DHT22;32313;48.722;9.362;2023-01-25T16:42:14;1.50;99.90
46590;DHT22;32313;48.722;9.362;2023-01-25T16:44:40;1.50;99.90
46590;DHT22;32313;48.722;9.362;2023-01-25T16:47:06;1.40;99.90
46590;DHT22;32313;48.722;9.362;2023-01-25T16:49:31;1.40;99.90
46590;DHT22;32313;48.722;9.362;2023-01-25T16:51:58;1.40;99.90
46590;DHT22;32313;48.722;9.362;2023-01-25T16:54:25;1.40;99.90
46590;DHT22;32313;48.722;9.362;2023-01-25T16:56:52;1.40;99.90
46590;DHT22;32313;48.722;9.362;2023-01-25T16:59:19;1.40;99.90
46590;DHT22;32313;48.722;9.362;2023-01-25T17:01:46;1.40;99.90
46590;DHT22;32313;48.722;9.362;2023-01-25T17:04:12;1.40;99.90
46590;DHT22;32313;48.722;9.362;2023-01-25T17:06:42;1.40;99.90
46590;DHT22;32313;48.722;9.362;2023-01-25T17:09:14;1.30;99.90
46590;DHT22;32313;48.722;9.362;2023-01-25T17:11:40;1.30;99.90
46590;DHT22;32313;48.722;9.362;2023-01-25T17:14:06;1.30;99.90
46590;DHT22;32313;48.722;9.362;2023-01-25T17:16:32;1.30;99.90
46590;DHT22;32313;48.722;9.362;2023-01-25T17:19:03;1.30;99.90
46590;DHT22;32313;48.722;9.362;2023-01-25T17:21:30;1.30;99.90
46590;DHT22;32313;48.722;9.362;2023-01-25T17:23:57;1.30;99.90
46590;DHT22;32313;48.722;9.362;2023-01-25T17:26:23;1.30;99.90
46590;DHT22;32313;48.722;9.362;2023-01-25T17:28:49;1.30;99.90
46590;DHT22;32313;48.722;9.362;2023-01-25T17:31:18;1.30;99.90
46590;DHT22;32313;48.722;9.362;2023-01-25T17:33:45;1.30;99.90
46590;DHT22;32313;48.722;9.362;2023-01-25T17:36:11;1.20;99.90